Terminal Aerodrome Forecast
Issued by NWS

Home | Current Version | Previous Version | Graphics & Text | Print | Product List | Glossary On
Versions: 1 2 3 4 5 6 7 8 9 10 11 12 13 14 15 16 17 18
000
FTUS43 KIWX 270900 AAA
TAFSBN
TAF AMD
KSBN 270917Z 2709/2806 22005KT 2SM BR SCT008 BKN025
      TEMPO 2709/2712 1/2SM FG VV002
     FM271600 25010KT 6SM -SHRA VCTS SCT025CB BKN035
     FM272000 29014G22KT P6SM VCSH BKN035
     FM280100 28010KT P6SM SCT008 BKN035
      TEMPO 2804/2806 5SM BR BKN008=

USA.gov is the U.S. government's official web portal to all federal, state and local government web resources and services.